sensor_id;sensor_type;location;lat;lon;timestamp;pressure;altitude;pressure_sealevel;temperature;humidity
23339;BME280;11841;49.368;20.962;2023-11-19T00:01:51;96145.09;;;3.45;81.42
23339;BME280;11841;49.368;20.962;2023-11-19T00:04:37;96136.25;;;3.38;81.31
23339;BME280;11841;49.368;20.962;2023-11-19T00:07:24;96124.47;;;3.34;81.18
23339;BME280;11841;49.368;20.962;2023-11-19T00:10:19;96125.09;;;3.28;81.63
23339;BME280;11841;49.368;20.962;2023-11-19T00:13:04;96123.16;;;3.30;81.92
23339;BME280;11841;49.368;20.962;2023-11-19T00:15:49;96130.50;;;3.34;81.82
23339;BME280;11841;49.368;20.962;2023-11-19T00:18:34;96121.53;;;3.37;81.51
23339;BME280;11841;49.368;20.962;2023-11-19T00:21:19;96141.19;;;3.41;80.81
23339;BME280;11841;49.368;20.962;2023-11-19T00:24:04;96137.25;;;3.45;81.39
23339;BME280;11841;49.368;20.962;2023-11-19T00:26:50;96140.19;;;3.50;80.85
23339;BME280;11841;49.368;20.962;2023-11-19T00:29:34;96145.09;;;3.53;81.32
23339;BME280;11841;49.368;20.962;2023-11-19T00:32:21;96139.06;;;3.52;80.75
23339;BME280;11841;49.368;20.962;2023-11-19T00:35:06;96124.47;;;3.50;81.31
23339;BME280;11841;49.368;20.962;2023-11-19T00:37:52;96131.66;;;3.48;80.88
23339;BME280;11841;49.368;20.962;2023-11-19T00:40:39;96121.19;;;3.48;81.18
23339;BME280;11841;49.368;20.962;2023-11-19T00:43:25;96122.84;;;3.49;80.80
23339;BME280;11841;49.368;20.962;2023-11-19T00:46:12;96118.56;;;3.48;80.56
23339;BME280;11841;49.368;20.962;2023-11-19T00:48:58;96127.09;;;3.50;81.40
23339;BME280;11841;49.368;20.962;2023-11-19T00:51:45;96118.88;;;3.53;81.36
23339;BME280;11841;49.368;20.962;2023-11-19T00:54:31;96112.84;;;3.52;80.68
23339;BME280;11841;49.368;20.962;2023-11-19T00:57:15;96110.69;;;3.48;80.99
23339;BME280;11841;49.368;20.962;2023-11-19T01:00:01;96118.91;;;3.45;80.69
23339;BME280;11841;49.368;20.962;2023-11-19T01:02:46;96111.38;;;3.42;81.31
23339;BME280;11841;49.368;20.962;2023-11-19T01:05:31;96105.47;;;3.40;80.98
23339;BME280;11841;49.368;20.962;2023-11-19T01:08:17;96097.25;;;3.43;80.80
23339;BME280;11841;49.368;20.962;2023-11-19T01:11:02;96094.97;;;3.48;80.56
23339;BME280;11841;49.368;20.962;2023-11-19T01:13:47;96090.38;;;3.50;80.87
23339;BME280;11841;49.368;20.962;2023-11-19T01:16:32;96082.19;;;3.53;80.56
23339;BME280;11841;49.368;20.962;2023-11-19T01:19:17;96085.47;;;3.55;80.34
23339;BME280;11841;49.368;20.962;2023-11-19T01:22:02;96078.78;;;3.52;80.67
23339;BME280;11841;49.368;20.962;2023-11-19T01:24:47;96082.19;;;3.53;80.45
23339;BME280;11841;49.368;20.962;2023-11-19T01:27:32;96081.38;;;3.52;80.84
23339;BME280;11841;49.368;20.962;2023-11-19T01:30:19;96074.19;;;3.54;80.88
23339;BME280;11841;49.368;20.962;2023-11-19T01:33:05;96067.28;;;3.53;81.19
23339;BME280;11841;49.368;20.962;2023-11-19T01:35:52;96062.03;;;3.53;81.01
23339;BME280;11841;49.368;20.962;2023-11-19T01:38:37;96052.72;;;3.51;80.74
23339;BME280;11841;49.368;20.962;2023-11-19T01:41:22;96050.28;;;3.49;80.50
23339;BME280;11841;49.368;20.962;2023-11-19T01:44:07;96041.91;;;3.46;80.46
23339;BME280;11841;49.368;20.962;2023-11-19T01:46:52;96043.38;;;3.48;80.72
23339;BME280;11841;49.368;20.962;2023-11-19T01:49:38;96041.91;;;3.54;81.16
23339;BME280;11841;49.368;20.962;2023-11-19T01:52:23;96048.78;;;3.55;81.13
23339;BME280;11841;49.368;20.962;2023-11-19T01:55:08;96038.44;;;3.53;81.26
23339;BME280;11841;49.368;20.962;2023-11-19T01:57:55;96033.03;;;3.55;80.73
23339;BME280;11841;49.368;20.962;2023-11-19T02:00:44;96040.59;;;3.58;80.46
23339;BME280;11841;49.368;20.962;2023-11-19T02:03:30;96040.25;;;3.53;80.99
23339;BME280;11841;49.368;20.962;2023-11-19T02:06:16;96035.34;;;3.50;80.90
23339;BME280;11841;49.368;20.962;2023-11-19T02:09:01;96034.38;;;3.51;80.33
23339;BME280;11841;49.368;20.962;2023-11-19T02:11:51;96016.66;;;3.53;80.44
23339;BME280;11841;49.368;20.962;2023-11-19T02:14:37;96012.72;;;3.57;80.19
23339;BME280;11841;49.368;20.962;2023-11-19T02:17:26;96017.97;;;3.57;80.34
23339;BME280;11841;49.368;20.962;2023-11-19T02:20:11;96016.19;;;3.57;80.35
23339;BME280;11841;49.368;20.962;2023-11-19T02:22:59;96001.28;;;3.58;80.12
23339;BME280;11841;49.368;20.962;2023-11-19T02:26:05;95999.44;;;3.58;80.37
23339;BME280;11841;49.368;20.962;2023-11-19T02:28:54;95998.47;;;3.59;79.94
23339;BME280;11841;49.368;20.962;2023-11-19T02:31:38;95986.16;;;3.60;80.70
23339;BME280;11841;49.368;20.962;2023-11-19T02:34:24;95985.53;;;3.66;80.39
23339;BME280;11841;49.368;20.962;2023-11-19T02:37:09;95994.66;;;3.70;80.07
23339;BME280;11841;49.368;20.962;2023-11-19T02:39:55;95997.16;;;3.72;80.28
23339;BME280;11841;49.368;20.962;2023-11-19T02:42:40;95991.72;;;3.73;80.45
23339;BME280;11841;49.368;20.962;2023-11-19T02:45:25;95992.69;;;3.72;80.21
23339;BME280;11841;49.368;20.962;2023-11-19T02:48:11;95982.88;;;3.74;79.99
23339;BME280;11841;49.368;20.962;2023-11-19T02:50:56;95976.63;;;3.75;79.64
23339;BME280;11841;49.368;20.962;2023-11-19T02:53:43;95971.72;;;3.72;80.11
23339;BME280;11841;49.368;20.962;2023-11-19T02:56:29;95968.44;;;3.70;80.08
23339;BME280;11841;49.368;20.962;2023-11-19T02:59:19;95962.88;;;3.73;80.12
23339;BME280;11841;49.368;20.962;2023-11-19T03:02:12;95948.28;;;3.70;80.05
23339;BME280;11841;49.368;20.962;2023-11-19T03:04:57;95942.88;;;3.72;79.71
23339;BME280;11841;49.368;20.962;2023-11-19T03:07:45;95947.47;;;3.70;79.39
23339;BME280;11841;49.368;20.962;2023-11-19T03:10:30;95957.34;;;3.68;79.83
23339;BME280;11841;49.368;20.962;2023-11-19T03:13:15;95942.56;;;3.67;79.49
23339;BME280;11841;49.368;20.962;2023-11-19T03:16:02;95941.75;;;3.66;79.44
23339;BME280;11841;49.368;20.962;2023-11-19T03:18:47;95951.44;;;3.66;79.06
23339;BME280;11841;49.368;20.962;2023-11-19T03:21:32;95957.81;;;3.63;79.00
23339;BME280;11841;49.368;20.962;2023-11-19T03:24:18;95944.06;;;3.61;79.03
23339;BME280;11841;49.368;20.962;2023-11-19T03:27:03;95937.19;;;3.60;79.19
23339;BME280;11841;49.368;20.962;2023-11-19T03:29:49;95937.69;;;3.56;78.68
23339;BME280;11841;49.368;20.962;2023-11-19T03:32:34;95924.91;;;3.53;78.15
23339;BME280;11841;49.368;20.962;2023-11-19T03:35:20;95923.28;;;3.52;78.60
23339;BME280;11841;49.368;20.962;2023-11-19T03:38:06;95912.78;;;3.52;78.47
23339;BME280;11841;49.368;20.962;2023-11-19T03:40:51;95905.28;;;3.49;78.14
23339;BME280;11841;49.368;20.962;2023-11-19T03:43:36;95896.94;;;3.45;78.12
23339;BME280;11841;49.368;20.962;2023-11-19T03:46:21;95886.97;;;3.41;78.40
23339;BME280;11841;49.368;20.962;2023-11-19T03:49:06;95886.63;;;3.44;78.67
23339;BME280;11841;49.368;20.962;2023-11-19T03:51:52;95893.50;;;3.45;78.48
23339;BME280;11841;49.368;20.962;2023-11-19T03:54:37;95887.28;;;3.46;78.96
23339;BME280;11841;49.368;20.962;2023-11-19T03:57:22;95884.81;;;3.44;79.19
23339;BME280;11841;49.368;20.962;2023-11-19T04:00:08;95889.56;;;3.49;78.54
23339;BME280;11841;49.368;20.962;2023-11-19T04:02:58;95887.75;;;3.49;78.66
23339;BME280;11841;49.368;20.962;2023-11-19T04:05:43;95888.22;;;3.53;78.41
23339;BME280;11841;49.368;20.962;2023-11-19T04:08:28;95895.28;;;3.52;78.90
23339;BME280;11841;49.368;20.962;2023-11-19T04:11:14;95893.78;;;3.50;78.35
23339;BME280;11841;49.368;20.962;2023-11-19T04:13:59;95888.91;;;3.47;78.63
23339;BME280;11841;49.368;20.962;2023-11-19T04:16:44;95893.78;;;3.50;78.62
23339;BME280;11841;49.368;20.962;2023-11-19T04:19:30;95882.34;;;3.51;79.20
23339;BME280;11841;49.368;20.962;2023-11-19T04:22:18;95870.69;;;3.53;79.36
23339;BME280;11841;49.368;20.962;2023-11-19T04:25:03;95860.72;;;3.49;78.59
23339;BME280;11841;49.368;20.962;2023-11-19T04:27:49;95868.59;;;3.49;78.59
23339;BME280;11841;49.368;20.962;2023-11-19T04:30:34;95867.63;;;3.42;78.53
23339;BME280;11841;49.368;20.962;2023-11-19T04:33:20;95842.41;;;3.41;78.90
23339;BME280;11841;49.368;20.962;2023-11-19T04:36:05;95838.34;;;3.30;79.19
23339;BME280;11841;49.368;20.962;2023-11-19T04:38:50;95834.38;;;3.34;79.22
23339;BME280;11841;49.368;20.962;2023-11-19T04:41:35;95824.06;;;3.41;79.24
23339;BME280;11841;49.368;20.962;2023-11-19T04:44:21;95834.84;;;3.46;79.05
23339;BME280;11841;49.368;20.962;2023-11-19T04:47:06;95833.69;;;3.48;78.43
23339;BME280;11841;49.368;20.962;2023-11-19T04:49:52;95822.38;;;3.48;79.03
23339;BME280;11841;49.368;20.962;2023-11-19T04:52:37;95805.03;;;3.47;78.49
23339;BME280;11841;49.368;20.962;2023-11-19T04:55:23;95797.50;;;3.44;78.67
23339;BME280;11841;49.368;20.962;2023-11-19T04:58:08;95801.63;;;3.38;78.47
23339;BME280;11841;49.368;20.962;2023-11-19T05:00:54;95803.41;;;3.38;78.65
23339;BME280;11841;49.368;20.962;2023-11-19T05:03:39;95801.16;;;3.35;78.99
23339;BME280;11841;49.368;20.962;2023-11-19T05:06:28;95801.44;;;3.40;79.02
23339;BME280;11841;49.368;20.962;2023-11-19T05:09:13;95791.28;;;3.45;78.38
23339;BME280;11841;49.368;20.962;2023-11-19T05:11:58;95776.25;;;3.39;78.83
23339;BME280;11841;49.368;20.962;2023-11-19T05:14:43;95774.47;;;3.31;78.61
23339;BME280;11841;49.368;20.962;2023-11-19T05:17:34;95766.09;;;3.36;79.01
23339;BME280;11841;49.368;20.962;2023-11-19T05:20:22;95758.88;;;3.38;78.26
23339;BME280;11841;49.368;20.962;2023-11-19T05:23:07;95745.94;;;3.36;78.35
23339;BME280;11841;49.368;20.962;2023-11-19T05:26:05;95748.72;;;3.35;78.39
23339;BME280;11841;49.368;20.962;2023-11-19T05:28:52;95739.59;;;3.31;78.40
23339;BME280;11841;49.368;20.962;2023-11-19T05:31:37;95752.69;;;3.31;78.53
23339;BME280;11841;49.368;20.962;2023-11-19T05:34:24;95760.03;;;3.35;79.20
23339;BME280;11841;49.368;20.962;2023-11-19T05:37:10;95759.34;;;3.41;78.94
23339;BME280;11841;49.368;20.962;2023-11-19T05:39:56;95763.13;;;3.39;77.75
23339;BME280;11841;49.368;20.962;2023-11-19T05:42:41;95761.16;;;3.41;78.75
23339;BME280;11841;49.368;20.962;2023-11-19T05:45:26;95766.88;;;3.44;78.33
23339;BME280;11841;49.368;20.962;2023-11-19T05:48:11;95761.47;;;3.46;77.71
23339;BME280;11841;49.368;20.962;2023-11-19T05:50:57;95750.69;;;3.41;78.22
23339;BME280;11841;49.368;20.962;2023-11-19T05:53:42;95748.06;;;3.41;78.15
23339;BME280;11841;49.368;20.962;2023-11-19T05:56:27;95744.44;;;3.42;78.22
23339;BME280;11841;49.368;20.962;2023-11-19T05:59:17;95746.06;;;3.43;77.76
23339;BME280;11841;49.368;20.962;2023-11-19T06:02:02;95756.84;;;3.48;77.56
23339;BME280;11841;49.368;20.962;2023-11-19T06:04:48;95770.31;;;3.45;77.78
23339;BME280;11841;49.368;20.962;2023-11-19T06:07:33;95761.47;;;3.46;78.51
23339;BME280;11841;49.368;20.962;2023-11-19T06:10:20;95768.75;;;3.28;76.82
23339;BME280;11841;49.368;20.962;2023-11-19T06:13:05;95760.56;;;3.23;77.66
23339;BME280;11841;49.368;20.962;2023-11-19T06:15:51;95761.88;;;3.27;77.78
23339;BME280;11841;49.368;20.962;2023-11-19T06:18:36;95770.03;;;3.32;78.52
23339;BME280;11841;49.368;20.962;2023-11-19T06:21:22;95764.09;;;3.38;78.07
23339;BME280;11841;49.368;20.962;2023-11-19T06:24:09;95751.31;;;3.43;77.93
23339;BME280;11841;49.368;20.962;2023-11-19T06:26:54;95748.72;;;3.35;77.84
23339;BME280;11841;49.368;20.962;2023-11-19T06:29:39;95744.31;;;3.35;77.69
23339;BME280;11841;49.368;20.962;2023-11-19T06:32:25;95744.78;;;3.39;77.83
23339;BME280;11841;49.368;20.962;2023-11-19T06:35:10;95741.81;;;3.42;77.43
23339;BME280;11841;49.368;20.962;2023-11-19T06:37:56;95721.84;;;3.41;77.06
23339;BME280;11841;49.368;20.962;2023-11-19T06:40:41;95723.34;;;3.35;77.23
23339;BME280;11841;49.368;20.962;2023-11-19T06:43:26;95713.06;;;3.26;77.26
23339;BME280;11841;49.368;20.962;2023-11-19T06:46:25;95713.81;;;3.12;77.70
23339;BME280;11841;49.368;20.962;2023-11-19T06:49:10;95716.09;;;3.15;77.38
23339;BME280;11841;49.368;20.962;2023-11-19T06:51:56;95723.94;;;3.15;77.52
23339;BME280;11841;49.368;20.962;2023-11-19T06:54:41;95721.81;;;3.18;77.68
23339;BME280;11841;49.368;20.962;2023-11-19T06:57:26;95723.91;;;3.23;77.09
23339;BME280;11841;49.368;20.962;2023-11-19T07:00:13;95726.50;;;3.31;77.23
23339;BME280;11841;49.368;20.962;2023-11-19T07:02:59;95729.25;;;3.37;77.06
23339;BME280;11841;49.368;20.962;2023-11-19T07:05:45;95744.78;;;3.39;76.59
23339;BME280;11841;49.368;20.962;2023-11-19T07:08:31;95754.94;;;3.42;76.50
23339;BME280;11841;49.368;20.962;2023-11-19T07:11:17;95746.41;;;3.40;76.71
23339;BME280;11841;49.368;20.962;2023-11-19T07:14:02;95751.00;;;3.38;77.14
23339;BME280;11841;49.368;20.962;2023-11-19T07:16:48;95754.63;;;3.37;76.42
23339;BME280;11841;49.368;20.962;2023-11-19T07:19:35;95731.88;;;3.37;77.10
23339;BME280;11841;49.368;20.962;2023-11-19T07:22:21;95747.25;;;3.40;76.92
23339;BME280;11841;49.368;20.962;2023-11-19T07:25:06;95725.44;;;3.40;76.52
23339;BME280;11841;49.368;20.962;2023-11-19T07:27:51;95733.78;;;3.43;76.52
23339;BME280;11841;49.368;20.962;2023-11-19T07:30:37;95727.03;;;3.49;76.86
23339;BME280;11841;49.368;20.962;2023-11-19T07:33:23;95719.19;;;3.49;76.76
23339;BME280;11841;49.368;20.962;2023-11-19T07:36:09;95707.09;;;3.40;76.36
23339;BME280;11841;49.368;20.962;2023-11-19T07:38:54;95705.97;;;3.34;76.13
23339;BME280;11841;49.368;20.962;2023-11-19T07:41:42;95696.38;;;3.27;75.33
23339;BME280;11841;49.368;20.962;2023-11-19T07:44:27;95697.19;;;3.27;75.39
23339;BME280;11841;49.368;20.962;2023-11-19T07:47:12;95695.72;;;3.25;76.03
23339;BME280;11841;49.368;20.962;2023-11-19T07:49:57;95701.31;;;3.22;75.62
23339;BME280;11841;49.368;20.962;2023-11-19T07:52:43;95687.34;;;3.29;76.06
23339;BME280;11841;49.368;20.962;2023-11-19T07:55:28;95672.84;;;3.19;75.79
23339;BME280;11841;49.368;20.962;2023-11-19T07:58:16;95655.09;;;3.29;75.48
23339;BME280;11841;49.368;20.962;2023-11-19T08:01:01;95633.25;;;3.36;75.99
23339;BME280;11841;49.368;20.962;2023-11-19T08:03:47;95629.84;;;3.36;76.24
23339;BME280;11841;49.368;20.962;2023-11-19T08:06:35;95633.84;;;3.24;75.17
23339;BME280;11841;49.368;20.962;2023-11-19T08:09:21;95623.31;;;3.32;76.00
23339;BME280;11841;49.368;20.962;2023-11-19T08:12:06;95628.56;;;3.32;75.46
23339;BME280;11841;49.368;20.962;2023-11-19T08:14:52;95633.38;;;3.20;74.98
23339;BME280;11841;49.368;20.962;2023-11-19T08:17:37;95631.09;;;3.17;74.83
23339;BME280;11841;49.368;20.962;2023-11-19T08:20:22;95616.84;;;3.20;75.43
23339;BME280;11841;49.368;20.962;2023-11-19T08:23:08;95620.03;;;3.30;76.14
23339;BME280;11841;49.368;20.962;2023-11-19T08:25:53;95630.47;;;3.38;75.92
23339;BME280;11841;49.368;20.962;2023-11-19T08:28:39;95640.31;;;3.36;75.46
23339;BME280;11841;49.368;20.962;2023-11-19T08:31:24;95645.22;;;3.39;75.99
23339;BME280;11841;49.368;20.962;2023-11-19T08:34:10;95655.09;;;3.29;75.61
23339;BME280;11841;49.368;20.962;2023-11-19T08:36:56;95663.63;;;3.31;76.28
23339;BME280;11841;49.368;20.962;2023-11-19T08:39:41;95664.41;;;3.31;75.74
23339;BME280;11841;49.368;20.962;2023-11-19T08:42:27;95659.63;;;3.35;76.11
23339;BME280;11841;49.368;20.962;2023-11-19T08:45:13;95670.19;;;3.27;75.81
23339;BME280;11841;49.368;20.962;2023-11-19T08:47:58;95683.88;;;3.37;76.22
23339;BME280;11841;49.368;20.962;2023-11-19T08:50:43;95677.03;;;3.28;75.44
23339;BME280;11841;49.368;20.962;2023-11-19T08:53:28;95664.94;;;3.27;75.62
23339;BME280;11841;49.368;20.962;2023-11-19T08:56:14;95658.50;;;3.37;75.67
23339;BME280;11841;49.368;20.962;2023-11-19T08:58:59;95657.91;;;3.50;75.25
23339;BME280;11841;49.368;20.962;2023-11-19T09:01:44;95640.56;;;3.49;75.13
23339;BME280;11841;49.368;20.962;2023-11-19T09:04:30;95624.94;;;3.55;75.67
23339;BME280;11841;49.368;20.962;2023-11-19T09:07:15;95628.50;;;3.40;75.21
23339;BME280;11841;49.368;20.962;2023-11-19T09:10:00;95624.34;;;3.45;75.51
23339;BME280;11841;49.368;20.962;2023-11-19T09:12:46;95608.75;;;3.52;76.05
23339;BME280;11841;49.368;20.962;2023-11-19T09:15:31;95608.66;;;3.60;76.05
23339;BME280;11841;49.368;20.962;2023-11-19T09:18:16;95624.81;;;3.49;75.81
23339;BME280;11841;49.368;20.962;2023-11-19T09:21:01;95610.72;;;3.50;75.23
23339;BME280;11841;49.368;20.962;2023-11-19T09:23:47;95607.59;;;3.54;74.96
23339;BME280;11841;49.368;20.962;2023-11-19T09:26:34;95599.56;;;3.56;74.50
23339;BME280;11841;49.368;20.962;2023-11-19T09:29:21;95595.28;;;3.55;74.65
23339;BME280;11841;49.368;20.962;2023-11-19T09:32:06;95600.13;;;3.66;75.53
23339;BME280;11841;49.368;20.962;2023-11-19T09:34:52;95594.16;;;3.72;75.46
23339;BME280;11841;49.368;20.962;2023-11-19T09:37:37;95601.09;;;3.65;74.96
23339;BME280;11841;49.368;20.962;2023-11-19T09:40:22;95608.53;;;3.76;75.76
23339;BME280;11841;49.368;20.962;2023-11-19T09:43:07;95595.19;;;3.86;74.83
23339;BME280;11841;49.368;20.962;2023-11-19T09:45:53;95595.44;;;3.76;75.00
23339;BME280;11841;49.368;20.962;2023-11-19T09:48:39;95597.88;;;3.78;75.15
23339;BME280;11841;49.368;20.962;2023-11-19T09:51:27;95607.34;;;3.64;74.99
23339;BME280;11841;49.368;20.962;2023-11-19T09:54:12;95603.94;;;3.78;75.37
23339;BME280;11841;49.368;20.962;2023-11-19T09:56:57;95595.63;;;3.89;74.74
23339;BME280;11841;49.368;20.962;2023-11-19T09:59:48;95577.47;;;3.88;73.79
23339;BME280;11841;49.368;20.962;2023-11-19T10:02:35;95567.06;;;3.94;75.03
23339;BME280;11841;49.368;20.962;2023-11-19T10:05:21;95564.34;;;4.02;75.00
23339;BME280;11841;49.368;20.962;2023-11-19T10:08:09;95551.88;;;4.04;74.42
23339;BME280;11841;49.368;20.962;2023-11-19T10:10:56;95537.41;;;4.08;74.25
23339;BME280;11841;49.368;20.962;2023-11-19T10:13:41;95536.88;;;3.98;73.54
23339;BME280;11841;49.368;20.962;2023-11-19T10:16:28;95541.38;;;4.04;74.29
23339;BME280;11841;49.368;20.962;2023-11-19T10:19:20;95528.81;;;4.14;74.59
23339;BME280;11841;49.368;20.962;2023-11-19T10:22:06;95530.53;;;4.07;73.46
23339;BME280;11841;49.368;20.962;2023-11-19T10:24:51;95522.75;;;3.99;73.82
23339;BME280;11841;49.368;20.962;2023-11-19T10:27:40;95534.63;;;3.95;74.40
23339;BME280;11841;49.368;20.962;2023-11-19T10:30:29;95526.66;;;4.03;74.88
23339;BME280;11841;49.368;20.962;2023-11-19T10:33:15;95516.06;;;4.11;74.19
23339;BME280;11841;49.368;20.962;2023-11-19T10:36:02;95512.16;;;4.22;74.33
23339;BME280;11841;49.368;20.962;2023-11-19T10:38:54;95496.50;;;4.28;74.75
23339;BME280;11841;49.368;20.962;2023-11-19T10:41:40;95493.16;;;4.34;74.27
23339;BME280;11841;49.368;20.962;2023-11-19T10:44:30;95484.00;;;4.30;74.11
23339;BME280;11841;49.368;20.962;2023-11-19T10:47:16;95492.97;;;4.21;73.82
23339;BME280;11841;49.368;20.962;2023-11-19T10:50:03;95493.44;;;4.10;74.16
23339;BME280;11841;49.368;20.962;2023-11-19T10:52:49;95498.78;;;4.17;75.19
23339;BME280;11841;49.368;20.962;2023-11-19T10:55:36;95506.84;;;4.15;75.38
23339;BME280;11841;49.368;20.962;2023-11-19T10:58:23;95503.19;;;4.16;75.56
23339;BME280;11841;49.368;20.962;2023-11-19T11:01:11;95505.72;;;4.24;75.63
23339;BME280;11841;49.368;20.962;2023-11-19T11:03:58;95488.25;;;4.31;75.30
23339;BME280;11841;49.368;20.962;2023-11-19T11:06:44;95495.06;;;4.26;75.95
23339;BME280;11841;49.368;20.962;2023-11-19T11:09:30;95488.25;;;4.31;75.92
23339;BME280;11841;49.368;20.962;2023-11-19T11:12:16;95487.09;;;4.34;75.49
23339;BME280;11841;49.368;20.962;2023-11-19T11:15:02;95469.94;;;4.38;76.23
23339;BME280;11841;49.368;20.962;2023-11-19T11:17:49;95468.53;;;4.35;76.28
23339;BME280;11841;49.368;20.962;2023-11-19T11:20:35;95470.06;;;4.44;76.42
23339;BME280;11841;49.368;20.962;2023-11-19T11:29:26;95445.41;;;4.45;76.43
23339;BME280;11841;49.368;20.962;2023-11-19T11:35:24;95445.94;;;4.55;76.78
23339;BME280;11841;49.368;20.962;2023-11-19T11:38:14;95444.44;;;4.67;76.92
23339;BME280;11841;49.368;20.962;2023-11-19T11:41:16;95448.13;;;4.73;76.72
23339;BME280;11841;49.368;20.962;2023-11-19T11:44:04;95441.16;;;4.80;76.67
23339;BME280;11841;49.368;20.962;2023-11-19T11:46:56;95426.44;;;4.85;76.70
23339;BME280;11841;49.368;20.962;2023-11-19T11:49:42;95415.91;;;4.85;76.25
23339;BME280;11841;49.368;20.962;2023-11-19T11:52:27;95391.53;;;4.91;76.32
23339;BME280;11841;49.368;20.962;2023-11-19T11:55:14;95386.84;;;4.87;75.93
23339;BME280;11841;49.368;20.962;2023-11-19T11:57:59;95382.84;;;4.91;76.63
23339;BME280;11841;49.368;20.962;2023-11-19T12:00:44;95371.75;;;4.95;76.71
23339;BME280;11841;49.368;20.962;2023-11-19T12:03:32;95367.94;;;4.98;76.55
23339;BME280;11841;49.368;20.962;2023-11-19T12:06:17;95370.44;;;5.06;76.12
23339;BME280;11841;49.368;20.962;2023-11-19T12:09:05;95367.03;;;4.84;75.21
23339;BME280;11841;49.368;20.962;2023-11-19T12:12:00;95380.34;;;4.83;75.81
23339;BME280;11841;49.368;20.962;2023-11-19T12:17:43;95374.53;;;4.87;75.89
23339;BME280;11841;49.368;20.962;2023-11-19T12:20:32;95365.91;;;4.93;76.00
23339;BME280;11841;49.368;20.962;2023-11-19T12:23:20;95349.72;;;4.90;75.76
23339;BME280;11841;49.368;20.962;2023-11-19T12:26:05;95336.56;;;4.90;76.80
23339;BME280;11841;49.368;20.962;2023-11-19T12:28:57;95330.88;;;4.86;75.94
23339;BME280;11841;49.368;20.962;2023-11-19T12:31:44;95325.41;;;4.81;76.26
23339;BME280;11841;49.368;20.962;2023-11-19T12:34:30;95322.00;;;4.87;76.61
23339;BME280;11841;49.368;20.962;2023-11-19T12:37:15;95323.81;;;4.87;76.23
23339;BME280;11841;49.368;20.962;2023-11-19T12:40:00;95309.09;;;4.92;75.93
23339;BME280;11841;49.368;20.962;2023-11-19T12:42:54;95312.13;;;4.89;76.09
23339;BME280;11841;49.368;20.962;2023-11-19T12:45:39;95309.09;;;4.92;76.01
23339;BME280;11841;49.368;20.962;2023-11-19T12:48:24;95321.00;;;4.88;75.41
23339;BME280;11841;49.368;20.962;2023-11-19T12:51:09;95315.59;;;4.97;75.93
23339;BME280;11841;49.368;20.962;2023-11-19T12:53:58;95302.94;;;5.07;75.65
23339;BME280;11841;49.368;20.962;2023-11-19T12:56:52;95299.50;;;5.06;75.63
23339;BME280;11841;49.368;20.962;2023-11-19T12:59:38;95291.19;;;5.03;75.38
23339;BME280;11841;49.368;20.962;2023-11-19T13:02:24;95283.31;;;5.09;75.90
23339;BME280;11841;49.368;20.962;2023-11-19T13:05:30;95278.03;;;5.03;75.15
23339;BME280;11841;49.368;20.962;2023-11-19T13:08:18;95283.72;;;5.06;76.05
23339;BME280;11841;49.368;20.962;2023-11-19T13:11:03;95288.03;;;5.14;76.07
23339;BME280;11841;49.368;20.962;2023-11-19T13:13:55;95281.91;;;5.07;75.87
23339;BME280;11841;49.368;20.962;2023-11-19T13:16:40;95272.66;;;5.11;76.41
23339;BME280;11841;49.368;20.962;2023-11-19T13:19:27;95277.50;;;5.14;76.17
23339;BME280;11841;49.368;20.962;2023-11-19T13:22:13;95290.03;;;5.12;76.07
23339;BME280;11841;49.368;20.962;2023-11-19T13:24:58;95284.31;;;5.02;75.79
23339;BME280;11841;49.368;20.962;2023-11-19T13:27:45;95288.91;;;4.93;76.07
23339;BME280;11841;49.368;20.962;2023-11-19T13:30:30;95300.00;;;4.88;76.73
23339;BME280;11841;49.368;20.962;2023-11-19T13:33:16;95278.97;;;4.88;77.04
23339;BME280;11841;49.368;20.962;2023-11-19T13:36:02;95287.28;;;4.92;77.22
23339;BME280;11841;49.368;20.962;2023-11-19T13:38:51;95285.22;;;4.87;77.75
23339;BME280;11841;49.368;20.962;2023-11-19T13:41:36;95272.94;;;4.94;77.81
23339;BME280;11841;49.368;20.962;2023-11-19T13:44:21;95267.72;;;5.01;77.39
23339;BME280;11841;49.368;20.962;2023-11-19T13:47:06;95277.69;;;5.06;77.53
23339;BME280;11841;49.368;20.962;2023-11-19T13:49:54;95274.66;;;5.09;77.50
23339;BME280;11841;49.368;20.962;2023-11-19T13:52:40;95266.78;;;5.09;77.51
23339;BME280;11841;49.368;20.962;2023-11-19T13:55:25;95269.25;;;4.89;78.39
23339;BME280;11841;49.368;20.962;2023-11-19T13:58:10;95256.09;;;4.82;78.67
23339;BME280;11841;49.368;20.962;2023-11-19T14:00:55;95268.78;;;4.79;78.92
23339;BME280;11841;49.368;20.962;2023-11-19T14:03:41;95259.03;;;4.66;79.46
23339;BME280;11841;49.368;20.962;2023-11-19T14:06:27;95261.59;;;4.60;79.43
23339;BME280;11841;49.368;20.962;2023-11-19T14:09:12;95255.41;;;4.46;80.08
23339;BME280;11841;49.368;20.962;2023-11-19T14:11:57;95256.03;;;4.48;80.78
23339;BME280;11841;49.368;20.962;2023-11-19T14:14:43;95253.63;;;4.47;80.17
23339;BME280;11841;49.368;20.962;2023-11-19T14:17:28;95241.56;;;4.52;80.72
23339;BME280;11841;49.368;20.962;2023-11-19T14:20:14;95250.59;;;4.50;80.05
23339;BME280;11841;49.368;20.962;2023-11-19T14:23:00;95240.78;;;4.58;80.39
23339;BME280;11841;49.368;20.962;2023-11-19T14:25:46;95238.72;;;4.54;80.44
23339;BME280;11841;49.368;20.962;2023-11-19T14:28:31;95253.41;;;4.48;80.53
23339;BME280;11841;49.368;20.962;2023-11-19T14:31:16;95250.59;;;4.50;80.33
23339;BME280;11841;49.368;20.962;2023-11-19T14:34:01;95251.56;;;4.42;80.95
23339;BME280;11841;49.368;20.962;2023-11-19T14:36:47;95251.00;;;4.47;80.96
23339;BME280;11841;49.368;20.962;2023-11-19T14:39:32;95238.06;;;4.45;81.07
23339;BME280;11841;49.368;20.962;2023-11-19T14:42:18;95247.53;;;4.46;81.10
23339;BME280;11841;49.368;20.962;2023-11-19T14:45:02;95241.56;;;4.52;80.96
23339;BME280;11841;49.368;20.962;2023-11-19T14:47:48;95237.56;;;4.56;81.01
23339;BME280;11841;49.368;20.962;2023-11-19T14:50:33;95238.34;;;4.57;80.95
23339;BME280;11841;49.368;20.962;2023-11-19T14:53:18;95248.66;;;4.58;81.20